Navasota, Texas
Current Conditions -  °F | °C
As of 11:55 AM on Tuesday 21 Oct 2014 (Local Time) from K11R Reporting Station
Clear Clear  
Wind Chill: 78°   Ceiling: Unl
Heat Index: 79°   Visibility: 10mi
Dew Point: 54°   Wind: 5mph
Humidity: 44%   Direction: 60°ENE
Pressure: 30.09"   Gusts: NA
Location:  30.39°N, 96.09°W
Report Text: K11R 211655Z AUTO 06004KT 10SM CLR 25/12 A3009 RMK AO2 T02540124
Loading
Personal Weather Stations






























Interactive Weather Map
Tropical Storm Tracking
New forecast layout! Learn more

10-Day Weather Forecast

Advertisements
Track Severe Weather on mobile